sensor_id;sensor_type;location;lat;lon;timestamp;pressure;altitude;pressure_sealevel;temperature;humidity
10946;BME280;5525;42.648;23.368;2022-07-23T00:01:38;94905.53;;;19.82;73.10
10946;BME280;5525;42.648;23.368;2022-07-23T00:04:06;94901.44;;;19.66;75.51
10946;BME280;5525;42.648;23.368;2022-07-23T00:06:33;94896.03;;;19.73;75.73
10946;BME280;5525;42.648;23.368;2022-07-23T00:09:00;94906.19;;;19.69;76.64
10946;BME280;5525;42.648;23.368;2022-07-23T00:11:27;94900.00;;;19.75;68.63
10946;BME280;5525;42.648;23.368;2022-07-23T00:13:54;94915.84;;;19.96;60.82
10946;BME280;5525;42.648;23.368;2022-07-23T00:16:23;94860.56;;;19.87;59.74
10946;BME280;5525;42.648;23.368;2022-07-23T00:18:51;94910.75;;;20.31;59.20
10946;BME280;5525;42.648;23.368;2022-07-23T00:21:21;94920.66;;;20.50;59.26
10946;BME280;5525;42.648;23.368;2022-07-23T00:23:47;94927.72;;;20.47;63.58
10946;BME280;5525;42.648;23.368;2022-07-23T00:26:14;94919.59;;;20.18;69.67
10946;BME280;5525;42.648;23.368;2022-07-23T00:28:41;94905.19;;;19.87;68.67
10946;BME280;5525;42.648;23.368;2022-07-23T00:31:08;94892.00;;;20.00;67.39
10946;BME280;5525;42.648;23.368;2022-07-23T00:33:35;94877.94;;;20.05;67.28
10946;BME280;5525;42.648;23.368;2022-07-23T00:36:04;94929.91;;;20.28;68.86
10946;BME280;5525;42.648;23.368;2022-07-23T00:38:31;94931.94;;;20.38;69.09
10946;BME280;5525;42.648;23.368;2022-07-23T00:40:58;94929.59;;;20.40;69.25
10946;BME280;5525;42.648;23.368;2022-07-23T00:43:25;94924.00;;;20.26;70.11
10946;BME280;5525;42.648;23.368;2022-07-23T00:45:52;94926.69;;;20.19;71.32
10946;BME280;5525;42.648;23.368;2022-07-23T00:48:19;94883.72;;;19.93;71.67
10946;BME280;5525;42.648;23.368;2022-07-23T00:50:45;94897.28;;;19.79;73.31
10946;BME280;5525;42.648;23.368;2022-07-23T00:53:14;94913.19;;;20.03;73.22
10946;BME280;5525;42.648;23.368;2022-07-23T00:55:42;94927.44;;;20.19;72.87
10946;BME280;5525;42.648;23.368;2022-07-23T00:58:09;94885.31;;;19.97;72.78
10946;BME280;5525;42.648;23.368;2022-07-23T01:00:36;94917.19;;;20.13;73.13
10946;BME280;5525;42.648;23.368;2022-07-23T01:03:03;94915.59;;;20.08;74.08
10946;BME280;5525;42.648;23.368;2022-07-23T01:05:30;94908.00;;;19.94;74.43
10946;BME280;5525;42.648;23.368;2022-07-23T01:07:57;94915.06;;;19.95;74.41
10946;BME280;5525;42.648;23.368;2022-07-23T01:10:26;94923.34;;;20.02;73.83
10946;BME280;5525;42.648;23.368;2022-07-23T01:12:59;94911.16;;;19.96;73.91
10946;BME280;5525;42.648;23.368;2022-07-23T01:15:27;94911.91;;;19.93;73.47
10946;BME280;5525;42.648;23.368;2022-07-23T01:17:53;94917.88;;;20.02;72.72
10946;BME280;5525;42.648;23.368;2022-07-23T01:20:21;94875.38;;;19.82;72.52
10946;BME280;5525;42.648;23.368;2022-07-23T01:22:49;94894.19;;;19.84;73.59
10946;BME280;5525;42.648;23.368;2022-07-23T01:25:17;94890.59;;;19.76;72.78
10946;BME280;5525;42.648;23.368;2022-07-23T01:27:44;94903.63;;;19.86;73.54
10946;BME280;5525;42.648;23.368;2022-07-23T01:30:11;94873.84;;;19.48;74.78
10946;BME280;5525;42.648;23.368;2022-07-23T01:32:39;94904.06;;;19.55;75.27
10946;BME280;5525;42.648;23.368;2022-07-23T01:35:07;94914.69;;;19.60;76.06
10946;BME280;5525;42.648;23.368;2022-07-23T01:37:34;94901.66;;;19.50;78.71
10946;BME280;5525;42.648;23.368;2022-07-23T01:40:03;94905.97;;;19.51;78.31
10946;BME280;5525;42.648;23.368;2022-07-23T01:42:30;94904.34;;;19.43;79.07
10946;BME280;5525;42.648;23.368;2022-07-23T01:44:57;94910.41;;;19.30;79.68
10946;BME280;5525;42.648;23.368;2022-07-23T01:47:24;94909.06;;;19.17;80.84
10946;BME280;5525;42.648;23.368;2022-07-23T01:49:51;94908.56;;;19.11;81.10
10946;BME280;5525;42.648;23.368;2022-07-23T01:52:17;94834.38;;;18.57;81.54
10946;BME280;5525;42.648;23.368;2022-07-23T01:54:44;94903.19;;;18.89;81.85
10946;BME280;5525;42.648;23.368;2022-07-23T01:57:12;94905.88;;;18.85;82.13
10946;BME280;5525;42.648;23.368;2022-07-23T01:59:39;94914.09;;;18.85;82.31
10946;BME280;5525;42.648;23.368;2022-07-23T02:02:06;94837.09;;;18.31;83.90
10946;BME280;5525;42.648;23.368;2022-07-23T02:04:33;94910.25;;;18.64;86.20
10946;BME280;5525;42.648;23.368;2022-07-23T02:07:02;94870.09;;;18.41;85.17
10946;BME280;5525;42.648;23.368;2022-07-23T02:09:29;94896.84;;;18.55;84.52
10946;BME280;5525;42.648;23.368;2022-07-23T02:11:56;94909.41;;;18.60;83.86
10946;BME280;5525;42.648;23.368;2022-07-23T02:14:25;94909.84;;;18.62;83.37
10946;BME280;5525;42.648;23.368;2022-07-23T02:16:52;94909.56;;;18.70;82.25
10946;BME280;5525;42.648;23.368;2022-07-23T02:19:19;94895.22;;;18.51;82.75
10946;BME280;5525;42.648;23.368;2022-07-23T02:21:46;94906.59;;;18.53;82.14
10946;BME280;5525;42.648;23.368;2022-07-23T02:24:14;94898.69;;;18.48;80.75
10946;BME280;5525;42.648;23.368;2022-07-23T02:26:41;94909.25;;;18.49;82.38
10946;BME280;5525;42.648;23.368;2022-07-23T02:29:08;94913.63;;;18.54;82.28
10946;BME280;5525;42.648;23.368;2022-07-23T02:31:36;94914.66;;;18.45;84.39
10946;BME280;5525;42.648;23.368;2022-07-23T02:34:03;94915.34;;;18.39;84.85
10946;BME280;5525;42.648;23.368;2022-07-23T02:36:30;94909.75;;;18.32;85.19
10946;BME280;5525;42.648;23.368;2022-07-23T02:38:57;94911.38;;;18.36;84.86
10946;BME280;5525;42.648;23.368;2022-07-23T02:41:24;94890.47;;;17.99;86.82
10946;BME280;5525;42.648;23.368;2022-07-23T02:43:51;94916.13;;;18.17;86.05
10946;BME280;5525;42.648;23.368;2022-07-23T02:46:18;94916.88;;;18.14;85.92
10946;BME280;5525;42.648;23.368;2022-07-23T02:48:46;94921.09;;;18.11;83.98
10946;BME280;5525;42.648;23.368;2022-07-23T02:51:13;94926.19;;;18.13;82.77
10946;BME280;5525;42.648;23.368;2022-07-23T02:53:39;94931.84;;;18.01;83.48
10946;BME280;5525;42.648;23.368;2022-07-23T02:56:06;94927.72;;;17.88;83.91
10946;BME280;5525;42.648;23.368;2022-07-23T02:58:33;94926.69;;;17.96;83.34
10946;BME280;5525;42.648;23.368;2022-07-23T03:01:00;94895.00;;;17.69;83.19
10946;BME280;5525;42.648;23.368;2022-07-23T03:03:27;94923.84;;;17.89;83.25
10946;BME280;5525;42.648;23.368;2022-07-23T03:05:55;94935.03;;;18.03;83.21
10946;BME280;5525;42.648;23.368;2022-07-23T03:08:22;94935.38;;;18.01;82.83
10946;BME280;5525;42.648;23.368;2022-07-23T03:10:49;94944.31;;;17.98;82.28
10946;BME280;5525;42.648;23.368;2022-07-23T03:13:16;94904.97;;;17.80;82.04
10946;BME280;5525;42.648;23.368;2022-07-23T03:15:43;94927.41;;;17.93;82.08
10946;BME280;5525;42.648;23.368;2022-07-23T03:18:10;94943.66;;;18.05;82.26
10946;BME280;5525;42.648;23.368;2022-07-23T03:20:37;94933.69;;;17.93;83.04
10946;BME280;5525;42.648;23.368;2022-07-23T03:23:05;94941.75;;;18.09;83.39
10946;BME280;5525;42.648;23.368;2022-07-23T03:25:32;94950.03;;;18.12;82.72
10946;BME280;5525;42.648;23.368;2022-07-23T03:27:59;94953.66;;;18.20;81.67
10946;BME280;5525;42.648;23.368;2022-07-23T03:30:26;94959.91;;;18.20;82.30
10946;BME280;5525;42.648;23.368;2022-07-23T03:32:53;94933.50;;;18.05;82.18
10946;BME280;5525;42.648;23.368;2022-07-23T03:35:20;94954.56;;;18.27;81.74
10946;BME280;5525;42.648;23.368;2022-07-23T03:37:46;94941.88;;;18.16;81.84
10946;BME280;5525;42.648;23.368;2022-07-23T03:40:15;94958.28;;;18.16;81.37
10946;BME280;5525;42.648;23.368;2022-07-23T03:42:41;94886.44;;;17.70;81.48
10946;BME280;5525;42.648;23.368;2022-07-23T03:45:09;94964.78;;;18.08;80.48
10946;BME280;5525;42.648;23.368;2022-07-23T03:47:36;94961.97;;;18.04;80.72
10946;BME280;5525;42.648;23.368;2022-07-23T03:50:05;94966.16;;;18.21;80.17
10946;BME280;5525;42.648;23.368;2022-07-23T03:52:32;94970.06;;;18.20;79.82
10946;BME280;5525;42.648;23.368;2022-07-23T03:54:59;94967.28;;;18.39;80.01
10946;BME280;5525;42.648;23.368;2022-07-23T03:57:27;94969.97;;;18.58;79.12
10946;BME280;5525;42.648;23.368;2022-07-23T03:59:54;94943.13;;;18.67;76.27
10946;BME280;5525;42.648;23.368;2022-07-23T04:02:21;94962.94;;;19.13;74.57
10946;BME280;5525;42.648;23.368;2022-07-23T04:04:48;94957.25;;;19.54;73.14
10946;BME280;5525;42.648;23.368;2022-07-23T04:07:15;94968.41;;;20.05;70.78
10946;BME280;5525;42.648;23.368;2022-07-23T04:09:43;94959.25;;;20.74;66.68
10946;BME280;5525;42.648;23.368;2022-07-23T04:12:10;94923.47;;;21.11;62.78
10946;BME280;5525;42.648;23.368;2022-07-23T04:14:38;94937.16;;;21.83;58.93
10946;BME280;5525;42.648;23.368;2022-07-23T04:17:05;94968.72;;;22.48;56.40
10946;BME280;5525;42.648;23.368;2022-07-23T04:19:32;94924.69;;;22.34;55.45
10946;BME280;5525;42.648;23.368;2022-07-23T04:21:59;94953.78;;;23.02;53.42
10946;BME280;5525;42.648;23.368;2022-07-23T04:24:26;94962.47;;;23.07;52.92
10946;BME280;5525;42.648;23.368;2022-07-23T04:26:53;94972.66;;;23.42;52.02
10946;BME280;5525;42.648;23.368;2022-07-23T04:29:19;94974.97;;;23.58;52.18
10946;BME280;5525;42.648;23.368;2022-07-23T04:31:47;94973.31;;;23.85;51.21
10946;BME280;5525;42.648;23.368;2022-07-23T04:34:14;94976.31;;;24.18;49.71
10946;BME280;5525;42.648;23.368;2022-07-23T04:36:41;94966.03;;;24.84;47.70
10946;BME280;5525;42.648;23.368;2022-07-23T04:39:08;94972.22;;;25.43;46.07
10946;BME280;5525;42.648;23.368;2022-07-23T04:41:35;94973.94;;;25.67;44.78
10946;BME280;5525;42.648;23.368;2022-07-23T04:44:02;94981.78;;;26.35;42.83
10946;BME280;5525;42.648;23.368;2022-07-23T04:46:29;94971.69;;;27.02;40.01
10946;BME280;5525;42.648;23.368;2022-07-23T04:48:57;94980.94;;;27.64;38.67
10946;BME280;5525;42.648;23.368;2022-07-23T04:51:24;94984.81;;;27.90;37.83
10946;BME280;5525;42.648;23.368;2022-07-23T04:53:51;94970.75;;;28.36;37.39
10946;BME280;5525;42.648;23.368;2022-07-23T04:56:18;94993.91;;;29.01;36.20
10946;BME280;5525;42.648;23.368;2022-07-23T04:58:45;94999.84;;;29.67;35.42
10946;BME280;5525;42.648;23.368;2022-07-23T05:01:12;95001.06;;;29.66;35.58
10946;BME280;5525;42.648;23.368;2022-07-23T05:03:39;95009.91;;;29.61;34.91
10946;BME280;5525;42.648;23.368;2022-07-23T05:06:07;94989.53;;;28.84;35.46
10946;BME280;5525;42.648;23.368;2022-07-23T05:08:34;95001.22;;;28.95;35.42
10946;BME280;5525;42.648;23.368;2022-07-23T05:11:01;94995.03;;;28.87;34.73
10946;BME280;5525;42.648;23.368;2022-07-23T05:13:28;94989.13;;;29.94;33.05
10946;BME280;5525;42.648;23.368;2022-07-23T05:15:56;94989.97;;;30.36;32.51
10946;BME280;5525;42.648;23.368;2022-07-23T05:18:23;95006.91;;;30.29;33.38
10946;BME280;5525;42.648;23.368;2022-07-23T05:20:49;95008.94;;;29.84;34.18
10946;BME280;5525;42.648;23.368;2022-07-23T05:23:18;95011.91;;;30.05;34.07
10946;BME280;5525;42.648;23.368;2022-07-23T05:25:44;95011.34;;;31.05;31.83
10946;BME280;5525;42.648;23.368;2022-07-23T05:28:11;94990.50;;;30.84;31.57
10946;BME280;5525;42.648;23.368;2022-07-23T05:30:38;95014.56;;;30.78;32.18
10946;BME280;5525;42.648;23.368;2022-07-23T05:33:05;95014.38;;;30.32;32.88
10946;BME280;5525;42.648;23.368;2022-07-23T05:35:33;95019.38;;;31.15;31.66
10946;BME280;5525;42.648;23.368;2022-07-23T05:37:59;95014.00;;;31.59;31.66
10946;BME280;5525;42.648;23.368;2022-07-23T05:40:27;95013.41;;;32.32;30.25
10946;BME280;5525;42.648;23.368;2022-07-23T05:42:54;94993.00;;;32.22;30.94
10946;BME280;5525;42.648;23.368;2022-07-23T05:45:21;95013.00;;;32.86;30.01
10946;BME280;5525;42.648;23.368;2022-07-23T05:47:48;94999.28;;;33.40;29.29
10946;BME280;5525;42.648;23.368;2022-07-23T05:50:16;95015.50;;;33.63;29.16
10946;BME280;5525;42.648;23.368;2022-07-23T05:52:43;95001.97;;;32.60;30.19
10946;BME280;5525;42.648;23.368;2022-07-23T05:55:10;95020.00;;;33.21;29.61
10946;BME280;5525;42.648;23.368;2022-07-23T05:57:39;94999.06;;;32.95;29.32
10946;BME280;5525;42.648;23.368;2022-07-23T06:00:08;95020.28;;;33.44;29.73
10946;BME280;5525;42.648;23.368;2022-07-23T06:02:37;95021.81;;;36.06;27.19
10946;BME280;5525;42.648;23.368;2022-07-23T06:05:05;95022.75;;;34.27;27.86
10946;BME280;5525;42.648;23.368;2022-07-23T06:07:33;95027.78;;;37.18;24.54
10946;BME280;5525;42.648;23.368;2022-07-23T06:10:00;95026.50;;;38.58;22.41
10946;BME280;5525;42.648;23.368;2022-07-23T06:12:26;94987.22;;;36.14;23.98
10946;BME280;5525;42.648;23.368;2022-07-23T06:14:56;95015.34;;;36.38;24.29
10946;BME280;5525;42.648;23.368;2022-07-23T06:17:23;95005.00;;;35.73;25.36
10946;BME280;5525;42.648;23.368;2022-07-23T06:19:50;95014.97;;;36.74;24.52
10946;BME280;5525;42.648;23.368;2022-07-23T06:22:17;95013.19;;;36.09;25.20
10946;BME280;5525;42.648;23.368;2022-07-23T06:24:44;95024.03;;;37.21;23.87
10946;BME280;5525;42.648;23.368;2022-07-23T06:27:11;95028.31;;;38.61;22.56
10946;BME280;5525;42.648;23.368;2022-07-23T06:29:38;95026.41;;;39.29;22.10
10946;BME280;5525;42.648;23.368;2022-07-23T06:32:07;95011.78;;;39.62;21.57
10946;BME280;5525;42.648;23.368;2022-07-23T06:34:34;95022.97;;;41.27;19.52
10946;BME280;5525;42.648;23.368;2022-07-23T06:37:01;95000.19;;;40.02;20.26
10946;BME280;5525;42.648;23.368;2022-07-23T06:39:28;94963.28;;;39.80;20.66
10946;BME280;5525;42.648;23.368;2022-07-23T06:41:55;95000.28;;;41.43;19.00
10946;BME280;5525;42.648;23.368;2022-07-23T06:44:22;95012.38;;;40.19;19.79
10946;BME280;5525;42.648;23.368;2022-07-23T06:46:49;95017.41;;;40.57;19.55
10946;BME280;5525;42.648;23.368;2022-07-23T06:49:17;95017.91;;;40.50;19.53
10946;BME280;5525;42.648;23.368;2022-07-23T06:51:44;95010.31;;;41.00;19.73
10946;BME280;5525;42.648;23.368;2022-07-23T06:54:11;95019.72;;;42.24;18.65
10946;BME280;5525;42.648;23.368;2022-07-23T06:56:38;94994.38;;;41.52;19.16
10946;BME280;5525;42.648;23.368;2022-07-23T06:59:05;95010.84;;;41.65;18.79
10946;BME280;5525;42.648;23.368;2022-07-23T07:01:33;94984.31;;;41.51;18.68
10946;BME280;5525;42.648;23.368;2022-07-23T07:03:59;95012.13;;;41.75;18.62
10946;BME280;5525;42.648;23.368;2022-07-23T07:06:28;95016.13;;;44.34;16.54
10946;BME280;5525;42.648;23.368;2022-07-23T07:08:54;95019.78;;;44.91;16.41
10946;BME280;5525;42.648;23.368;2022-07-23T07:11:22;95001.91;;;42.86;17.90
10946;BME280;5525;42.648;23.368;2022-07-23T07:13:50;95009.44;;;42.16;18.17
10946;BME280;5525;42.648;23.368;2022-07-23T07:16:17;94955.94;;;41.62;18.76
10946;BME280;5525;42.648;23.368;2022-07-23T07:18:45;94993.66;;;44.07;16.89
10946;BME280;5525;42.648;23.368;2022-07-23T07:21:12;95002.91;;;44.13;16.76
10946;BME280;5525;42.648;23.368;2022-07-23T07:23:40;94989.44;;;44.56;16.41
10946;BME280;5525;42.648;23.368;2022-07-23T07:26:08;95008.66;;;46.66;14.88
10946;BME280;5525;42.648;23.368;2022-07-23T07:28:34;94996.69;;;42.90;17.48
10946;BME280;5525;42.648;23.368;2022-07-23T07:31:01;94962.88;;;44.85;16.29
10946;BME280;5525;42.648;23.368;2022-07-23T07:33:28;94990.28;;;42.38;18.18
10946;BME280;5525;42.648;23.368;2022-07-23T07:35:55;94982.84;;;39.83;19.93
10946;BME280;5525;42.648;23.368;2022-07-23T07:38:22;94965.03;;;42.24;18.03
10946;BME280;5525;42.648;23.368;2022-07-23T07:40:50;94927.44;;;42.07;18.08
10946;BME280;5525;42.648;23.368;2022-07-23T07:43:17;94988.94;;;44.33;16.75
10946;BME280;5525;42.648;23.368;2022-07-23T07:45:44;94979.84;;;45.59;15.75
10946;BME280;5525;42.648;23.368;2022-07-23T07:48:11;94986.88;;;44.52;16.24
10946;BME280;5525;42.648;23.368;2022-07-23T07:50:37;94978.19;;;43.19;16.91
10946;BME280;5525;42.648;23.368;2022-07-23T07:53:04;94972.16;;;40.68;18.91
10946;BME280;5525;42.648;23.368;2022-07-23T07:55:31;94973.41;;;41.89;18.06
10946;BME280;5525;42.648;23.368;2022-07-23T07:58:00;94997.69;;;43.93;16.53
10946;BME280;5525;42.648;23.368;2022-07-23T08:00:27;94975.25;;;44.50;14.95
10946;BME280;5525;42.648;23.368;2022-07-23T08:02:54;94980.34;;;47.01;13.65
10946;BME280;5525;42.648;23.368;2022-07-23T08:05:22;94991.72;;;48.17;13.17
10946;BME280;5525;42.648;23.368;2022-07-23T08:07:49;94984.84;;;48.84;12.88
10946;BME280;5525;42.648;23.368;2022-07-23T08:10:16;94987.34;;;48.52;13.00
10946;BME280;5525;42.648;23.368;2022-07-23T08:12:45;94981.94;;;48.13;13.00
10946;BME280;5525;42.648;23.368;2022-07-23T08:15:17;94965.22;;;47.96;12.82
10946;BME280;5525;42.648;23.368;2022-07-23T08:17:46;94962.56;;;45.39;14.51
10946;BME280;5525;42.648;23.368;2022-07-23T08:20:15;94976.16;;;46.03;14.10
10946;BME280;5525;42.648;23.368;2022-07-23T08:22:44;94972.34;;;46.14;14.33
10946;BME280;5525;42.648;23.368;2022-07-23T08:25:11;94960.69;;;45.41;14.77
10946;BME280;5525;42.648;23.368;2022-07-23T08:27:38;94962.09;;;45.35;14.38
10946;BME280;5525;42.648;23.368;2022-07-23T08:30:07;94984.91;;;47.38;13.29
10946;BME280;5525;42.648;23.368;2022-07-23T08:32:50;94982.56;;;50.08;12.15
10946;BME280;5525;42.648;23.368;2022-07-23T08:35:17;94980.00;;;50.27;11.78
10946;BME280;5525;42.648;23.368;2022-07-23T08:37:44;94978.09;;;50.45;11.50
10946;BME280;5525;42.648;23.368;2022-07-23T08:40:11;94973.59;;;51.14;11.55
10946;BME280;5525;42.648;23.368;2022-07-23T08:42:38;94972.84;;;48.57;13.32
10946;BME280;5525;42.648;23.368;2022-07-23T08:45:07;94979.69;;;48.19;13.32
10946;BME280;5525;42.648;23.368;2022-07-23T08:47:36;94958.09;;;47.90;13.65
10946;BME280;5525;42.648;23.368;2022-07-23T08:50:07;94963.41;;;48.77;12.67
10946;BME280;5525;42.648;23.368;2022-07-23T08:52:34;94965.25;;;50.38;11.91
10946;BME280;5525;42.648;23.368;2022-07-23T08:55:03;94970.66;;;51.21;11.65
10946;BME280;5525;42.648;23.368;2022-07-23T08:57:30;94933.25;;;50.42;12.16
10946;BME280;5525;42.648;23.368;2022-07-23T08:59:58;94970.31;;;51.17;11.76
10946;BME280;5525;42.648;23.368;2022-07-23T09:02:25;94975.06;;;52.79;10.36
10946;BME280;5525;42.648;23.368;2022-07-23T09:04:52;94971.41;;;52.79;10.81
10946;BME280;5525;42.648;23.368;2022-07-23T09:07:21;94978.91;;;55.01;9.81
10946;BME280;5525;42.648;23.368;2022-07-23T09:10:05;94970.94;;;52.99;10.32
10946;BME280;5525;42.648;23.368;2022-07-23T09:12:32;94966.78;;;52.93;10.43
10946;BME280;5525;42.648;23.368;2022-07-23T09:15:04;94962.22;;;54.06;9.73
10946;BME280;5525;42.648;23.368;2022-07-23T09:17:37;94954.63;;;54.20;10.05
10946;BME280;5525;42.648;23.368;2022-07-23T09:20:08;94963.34;;;54.29;9.24
10946;BME280;5525;42.648;23.368;2022-07-23T09:22:37;94965.88;;;53.34;10.01
10946;BME280;5525;42.648;23.368;2022-07-23T09:25:06;94956.84;;;54.67;9.58
10946;BME280;5525;42.648;23.368;2022-07-23T09:27:54;94954.25;;;53.51;10.35
10946;BME280;5525;42.648;23.368;2022-07-23T09:30:23;94951.53;;;52.49;10.70
10946;BME280;5525;42.648;23.368;2022-07-23T09:33:09;94954.84;;;51.86;11.00
10946;BME280;5525;42.648;23.368;2022-07-23T09:35:48;94950.13;;;52.74;10.54
10946;BME280;5525;42.648;23.368;2022-07-23T09:38:18;94950.84;;;53.72;9.41
10946;BME280;5525;42.648;23.368;2022-07-23T09:40:46;94938.56;;;51.00;11.21
10946;BME280;5525;42.648;23.368;2022-07-23T09:43:25;94926.06;;;49.36;11.43
10946;BME280;5525;42.648;23.368;2022-07-23T09:45:53;94933.88;;;52.28;9.93
10946;BME280;5525;42.648;23.368;2022-07-23T09:48:33;94929.53;;;51.60;10.25
10946;BME280;5525;42.648;23.368;2022-07-23T09:51:02;94930.25;;;52.10;10.11
10946;BME280;5525;42.648;23.368;2022-07-23T09:53:30;94925.56;;;50.44;10.89
10946;BME280;5525;42.648;23.368;2022-07-23T09:55:58;94915.91;;;50.10;11.26
10946;BME280;5525;42.648;23.368;2022-07-23T09:58:27;94925.91;;;50.96;11.15
10946;BME280;5525;42.648;23.368;2022-07-23T10:00:55;94920.75;;;52.17;9.56
10946;BME280;5525;42.648;23.368;2022-07-23T10:03:23;94901.09;;;51.40;9.86
10946;BME280;5525;42.648;23.368;2022-07-23T10:05:50;94916.53;;;52.35;9.14
10946;BME280;5525;42.648;23.368;2022-07-23T10:08:19;94886.50;;;52.38;9.29
10946;BME280;5525;42.648;23.368;2022-07-23T10:10:50;94902.78;;;51.43;10.18
10946;BME280;5525;42.648;23.368;2022-07-23T10:13:18;94892.41;;;50.83;10.34
10946;BME280;5525;42.648;23.368;2022-07-23T10:16:03;94905.56;;;51.26;9.53
10946;BME280;5525;42.648;23.368;2022-07-23T10:18:30;94902.75;;;52.60;8.95
10946;BME280;5525;42.648;23.368;2022-07-23T10:20:58;94908.56;;;52.43;9.47
10946;BME280;5525;42.648;23.368;2022-07-23T10:23:31;94877.25;;;52.40;8.89
10946;BME280;5525;42.648;23.368;2022-07-23T10:26:05;94893.28;;;53.20;8.51
10946;BME280;5525;42.648;23.368;2022-07-23T10:28:56;94887.25;;;52.99;8.56
10946;BME280;5525;42.648;23.368;2022-07-23T10:31:37;94882.13;;;53.07;8.03
10946;BME280;5525;42.648;23.368;2022-07-23T10:34:12;94886.03;;;51.90;8.55
10946;BME280;5525;42.648;23.368;2022-07-23T10:36:46;94887.31;;;52.82;7.90
10946;BME280;5525;42.648;23.368;2022-07-23T10:39:18;94868.16;;;51.50;9.14
10946;BME280;5525;42.648;23.368;2022-07-23T10:41:47;94847.56;;;50.80;8.70
10946;BME280;5525;42.648;23.368;2022-07-23T10:44:16;94856.41;;;49.50;9.64
10946;BME280;5525;42.648;23.368;2022-07-23T10:46:59;94855.44;;;49.78;9.37
10946;BME280;5525;42.648;23.368;2022-07-23T10:49:44;94847.78;;;49.05;9.77
10946;BME280;5525;42.648;23.368;2022-07-23T10:52:18;94852.19;;;47.69;10.15
10946;BME280;5525;42.648;23.368;2022-07-23T10:54:48;94850.63;;;50.42;8.60
10946;BME280;5525;42.648;23.368;2022-07-23T10:57:18;94861.75;;;52.01;8.09
10946;BME280;5525;42.648;23.368;2022-07-23T11:02:50;94845.28;;;51.77;7.36
10946;BME280;5525;42.648;23.368;2022-07-23T11:05:19;94839.72;;;51.54;7.69
10946;BME280;5525;42.648;23.368;2022-07-23T11:08:17;94844.16;;;50.34;8.68
10946;BME280;5525;42.648;23.368;2022-07-23T11:10:48;94831.34;;;49.43;8.48
10946;BME280;5525;42.648;23.368;2022-07-23T11:13:39;94823.25;;;48.66;8.77
10946;BME280;5525;42.648;23.368;2022-07-23T11:16:11;94815.06;;;50.23;7.46
10946;BME280;5525;42.648;23.368;2022-07-23T11:19:00;94825.94;;;50.32;6.97
10946;BME280;5525;42.648;23.368;2022-07-23T11:21:47;94815.91;;;48.50;6.73
10946;BME280;5525;42.648;23.368;2022-07-23T11:24:16;94811.16;;;48.60;6.33
10946;BME280;5525;42.648;23.368;2022-07-23T11:29:47;94808.56;;;49.45;7.21
10946;BME280;5525;42.648;23.368;2022-07-23T11:32:33;94790.59;;;48.19;7.70
10946;BME280;5525;42.648;23.368;2022-07-23T11:35:01;94808.88;;;48.59;7.91
10946;BME280;5525;42.648;23.368;2022-07-23T11:37:38;94809.28;;;47.77;8.76
10946;BME280;5525;42.648;23.368;2022-07-23T11:40:08;94798.41;;;46.57;8.85
10946;BME280;5525;42.648;23.368;2022-07-23T11:42:37;94788.06;;;46.88;8.94
10946;BME280;5525;42.648;23.368;2022-07-23T11:45:08;94790.56;;;46.03;9.62
10946;BME280;5525;42.648;23.368;2022-07-23T11:47:36;94778.16;;;44.97;10.62
10946;BME280;5525;42.648;23.368;2022-07-23T11:50:06;94779.41;;;45.27;10.37
10946;BME280;5525;42.648;23.368;2022-07-23T11:52:33;94702.97;;;43.17;11.38
10946;BME280;5525;42.648;23.368;2022-07-23T11:55:02;94767.00;;;42.94;11.21
10946;BME280;5525;42.648;23.368;2022-07-23T11:57:30;94761.72;;;41.17;11.39
10946;BME280;5525;42.648;23.368;2022-07-23T12:00:02;94753.44;;;41.82;11.19
10946;BME280;5525;42.648;23.368;2022-07-23T12:02:31;94768.91;;;41.07;11.76
10946;BME280;5525;42.648;23.368;2022-07-23T12:04:59;94754.84;;;40.24;12.34
10946;BME280;5525;42.648;23.368;2022-07-23T12:07:27;94759.66;;;39.80;12.46
10946;BME280;5525;42.648;23.368;2022-07-23T12:09:57;94753.06;;;39.30;12.88
10946;BME280;5525;42.648;23.368;2022-07-23T12:12:25;94740.19;;;38.70;13.40
10946;BME280;5525;42.648;23.368;2022-07-23T12:14:54;94752.09;;;38.48;13.60
10946;BME280;5525;42.648;23.368;2022-07-23T12:17:26;94751.34;;;38.53;13.18
10946;BME280;5525;42.648;23.368;2022-07-23T12:19:55;94750.88;;;38.24;13.39
10946;BME280;5525;42.648;23.368;2022-07-23T12:22:23;94745.22;;;38.55;12.81
10946;BME280;5525;42.648;23.368;2022-07-23T12:24:56;94743.84;;;38.45;13.48
10946;BME280;5525;42.648;23.368;2022-07-23T12:27:23;94740.50;;;37.84;13.01
10946;BME280;5525;42.648;23.368;2022-07-23T12:29:50;94735.94;;;37.92;13.09
10946;BME280;5525;42.648;23.368;2022-07-23T12:32:21;94735.38;;;38.45;12.30
10946;BME280;5525;42.648;23.368;2022-07-23T12:34:51;94730.75;;;38.47;12.47
10946;BME280;5525;42.648;23.368;2022-07-23T12:37:31;94732.28;;;38.43;12.94
10946;BME280;5525;42.648;23.368;2022-07-23T12:42:42;94725.16;;;37.91;13.17
10946;BME280;5525;42.648;23.368;2022-07-23T12:45:10;94717.00;;;37.93;13.00
10946;BME280;5525;42.648;23.368;2022-07-23T12:47:56;94721.81;;;37.87;12.91
10946;BME280;5525;42.648;23.368;2022-07-23T12:50:39;94698.94;;;37.79;13.12
10946;BME280;5525;42.648;23.368;2022-07-23T12:53:10;94691.53;;;37.56;12.76
10946;BME280;5525;42.648;23.368;2022-07-23T12:55:38;94713.78;;;37.54;13.16
10946;BME280;5525;42.648;23.368;2022-07-23T12:58:11;94675.66;;;37.33;13.04
10946;BME280;5525;42.648;23.368;2022-07-23T13:00:58;94697.38;;;37.53;12.73
10946;BME280;5525;42.648;23.368;2022-07-23T13:03:31;94706.44;;;37.62;12.52
10946;BME280;5525;42.648;23.368;2022-07-23T13:05:59;94708.47;;;37.62;12.55
10946;BME280;5525;42.648;23.368;2022-07-23T13:08:30;94703.78;;;37.79;12.92
10946;BME280;5525;42.648;23.368;2022-07-23T13:10:58;94711.41;;;37.67;12.49
10946;BME280;5525;42.648;23.368;2022-07-23T13:13:27;94704.25;;;37.72;12.03
10946;BME280;5525;42.648;23.368;2022-07-23T13:15:56;94695.44;;;37.64;13.19
10946;BME280;5525;42.648;23.368;2022-07-23T13:18:24;94700.44;;;37.09;12.05
10946;BME280;5525;42.648;23.368;2022-07-23T13:20:52;94709.13;;;37.05;11.44